createdAt,value
2023-02-19T00:00:47.837Z,77.587891
2023-02-19T00:01:56.488Z,77.587891
2023-02-19T00:03:06.245Z,77.484131
2023-02-19T00:04:14.797Z,77.587891
2023-02-19T00:05:22.562Z,77.484131
2023-02-19T00:06:31.211Z,77.587891
2023-02-19T00:07:39.871Z,77.587891
2023-02-19T00:08:49.545Z,77.587891
2023-02-19T00:09:58.229Z,77.587891
2023-02-19T00:11:05.884Z,77.587891
2023-02-19T00:12:15.548Z,77.685547
2023-02-19T00:13:24.188Z,77.685547
2023-02-19T00:14:32.865Z,77.587891
2023-02-19T00:15:41.543Z,77.685547
2023-02-19T00:16:51.259Z,77.789307
2023-02-19T00:18:00.852Z,77.789307
2023-02-19T00:19:08.497Z,77.789307
2023-02-19T00:20:16.159Z,77.893066
2023-02-19T00:21:25.848Z,77.996826
2023-02-19T00:22:35.501Z,77.996826
2023-02-19T00:23:44.157Z,77.996826
2023-02-19T00:24:52.868Z,78.094482
2023-02-19T00:26:16.168Z,78.338623
2023-02-19T00:27:13.137Z,78.643799
2023-02-19T00:28:21.781Z,78.643799
2023-02-19T00:29:30.422Z,78.643799
2023-02-19T00:30:40.178Z,78.747559
2023-02-19T00:31:49.054Z,78.845215
2023-02-19T00:32:58.483Z,78.845215
2023-02-19T00:34:08.118Z,78.747559
2023-02-19T00:35:16.804Z,78.643799
2023-02-19T00:36:26.458Z,78.643799
2023-02-19T00:37:34.175Z,78.442383
2023-02-19T00:38:41.807Z,78.442383
2023-02-19T00:39:51.473Z,78.338623
2023-02-19T00:41:00.142Z,78.234863
2023-02-19T00:42:09.804Z,78.234863
2023-02-19T00:43:18.460Z,78.338623
2023-02-19T00:44:27.106Z,78.338623
2023-02-19T00:45:36.790Z,78.442383
2023-02-19T00:46:44.440Z,78.234863
2023-02-19T00:47:53.091Z,78.234863
2023-02-19T00:49:02.790Z,78.234863
2023-02-19T00:50:12.469Z,78.338623
2023-02-19T00:51:21.114Z,78.338623
2023-02-19T00:52:29.798Z,78.338623
2023-02-19T00:53:38.462Z,78.338623
2023-02-19T00:54:48.151Z,78.234863
2023-02-19T00:55:56.836Z,78.338623
2023-02-19T00:57:04.473Z,78.234863
2023-02-19T00:58:14.137Z,78.338623
2023-02-19T00:59:23.792Z,78.442383
2023-02-19T01:00:32.476Z,78.442383
2023-02-19T01:01:41.160Z,78.442383
2023-02-19T01:02:50.793Z,78.442383
2023-02-19T01:04:00.471Z,78.442383
2023-02-19T01:05:09.187Z,78.442383
2023-02-19T01:06:16.848Z,78.338623
2023-02-19T01:07:26.503Z,78.442383
2023-02-19T01:08:35.154Z,78.442383
2023-02-19T01:09:43.811Z,78.540039
2023-02-19T01:10:51.559Z,78.643799
2023-02-19T01:12:00.217Z,78.643799
2023-02-19T01:13:09.867Z,78.643799
2023-02-19T01:14:18.533Z,78.540039
2023-02-19T01:15:26.192Z,78.540039
2023-02-19T01:16:35.874Z,78.540039
2023-02-19T01:17:44.503Z,78.643799
2023-02-19T01:18:54.138Z,78.643799
2023-02-19T01:20:03.768Z,78.845215
2023-02-19T01:21:13.663Z,78.845215
2023-02-19T01:22:23.180Z,78.948975
2023-02-19T01:23:30.823Z,78.948975
2023-02-19T01:24:39.498Z,79.052734
2023-02-19T01:25:49.175Z,79.156494
2023-02-19T01:26:57.824Z,79.052734
2023-02-19T01:28:06.473Z,78.948975
2023-02-19T01:29:17.124Z,79.052734
2023-02-19T01:30:25.877Z,79.052734
2023-02-19T01:31:35.571Z,79.156494
2023-02-19T01:32:45.112Z,79.156494
2023-02-19T01:33:54.797Z,79.156494
2023-02-19T01:35:04.421Z,79.156494
2023-02-19T01:36:13.091Z,79.25415
2023-02-19T01:37:22.777Z,79.35791
2023-02-19T01:38:32.407Z,79.56543
2023-02-19T01:39:41.047Z,79.699707
2023-02-19T01:40:50.758Z,79.602051
2023-02-19T01:41:58.409Z,79.602051
2023-02-19T01:43:08.066Z,79.699707
2023-02-19T01:44:17.718Z,79.699707
2023-02-19T01:45:25.371Z,79.602051
2023-02-19T01:46:34.092Z,79.498291
2023-02-19T01:47:43.706Z,79.394531
2023-02-19T01:48:52.352Z,79.394531
2023-02-19T01:50:01.005Z,79.35791
2023-02-19T01:51:11.036Z,79.35791
2023-02-19T01:52:19.331Z,79.394531
2023-02-19T01:53:29.026Z,79.35791
2023-02-19T01:54:38.661Z,79.25415
2023-02-19T01:55:47.367Z,79.25415
2023-02-19T01:56:56.024Z,79.394531
2023-02-19T01:58:04.656Z,79.25415
2023-02-19T01:59:13.345Z,79.290771
2023-02-19T02:00:22.005Z,79.290771
2023-02-19T02:01:31.686Z,79.498291
2023-02-19T02:02:42.344Z,79.602051
2023-02-19T02:03:49.984Z,79.602051
2023-02-19T02:04:58.644Z,79.602051
2023-02-19T02:06:06.361Z,79.699707
2023-02-19T02:07:14.014Z,79.699707
2023-02-19T02:08:23.672Z,79.907227
2023-02-19T02:09:32.360Z,80.010986
2023-02-19T02:10:40.980Z,80.108643
2023-02-19T02:11:49.673Z,80.212402
2023-02-19T02:12:59.320Z,81.134033
2023-02-19T02:14:08.981Z,81.744385
2023-02-19T02:15:16.642Z,82.092285
2023-02-19T02:16:26.362Z,82.293701
2023-02-19T02:17:35.980Z,82.910156
2023-02-19T02:18:44.626Z,82.806396
2023-02-19T02:19:54.288Z,82.806396
2023-02-19T02:21:02.974Z,83.013916
2023-02-19T02:22:11.625Z,84.033203
2023-02-19T02:23:21.327Z,84.686279
2023-02-19T02:24:28.958Z,86.016846
2023-02-19T02:25:38.635Z,87.286377
2023-02-19T02:26:47.278Z,88.000488
2023-02-19T02:27:56.936Z,89.123535
2023-02-19T02:29:05.583Z,89.678955
2023-02-19T02:30:13.273Z,90.496826
2023-02-19T02:31:22.001Z,90.948486
2023-02-19T02:32:31.644Z,91.052246
2023-02-19T02:33:39.300Z,91.052246
2023-02-19T02:34:46.971Z,91.357422
2023-02-19T02:35:55.623Z,92.077637
2023-02-19T02:37:05.310Z,91.668701
2023-02-19T02:38:14.972Z,91.772461
2023-02-19T02:39:23.620Z,92.425537
2023-02-19T02:40:33.267Z,93.041992
2023-02-19T02:41:43.968Z,93.145752
2023-02-19T02:42:51.600Z,93.041992
2023-02-19T02:44:00.256Z,93.450928
2023-02-19T02:45:09.916Z,93.450928
2023-02-19T02:46:18.559Z,93.450928
2023-02-19T02:47:27.239Z,94.067383
2023-02-19T02:48:35.906Z,94.317627
2023-02-19T02:49:44.556Z,94.622803
2023-02-19T02:50:54.224Z,95.031738
2023-02-19T02:52:02.901Z,95.544434
2023-02-19T02:53:11.585Z,96.057129
2023-02-19T02:54:21.251Z,96.203613
2023-02-19T02:55:29.893Z,96.716309
2023-02-19T02:56:39.566Z,96.923828
2023-02-19T02:57:49.221Z,97.229004
2023-02-19T02:58:58.882Z,97.540283
2023-02-19T03:00:08.570Z,97.583008
2023-02-19T03:01:16.304Z,97.894287
2023-02-19T03:02:24.954Z,99.841309
2023-02-19T03:03:34.557Z,99.993896
2023-02-19T03:04:43.234Z,99.993896
2023-02-19T03:05:51.879Z,99.993896
2023-02-19T03:07:00.579Z,99.993896
2023-02-19T03:08:09.211Z,99.993896
2023-02-19T03:09:18.848Z,99.993896
2023-02-19T03:10:27.493Z,99.993896
2023-02-19T03:11:37.158Z,99.993896
2023-02-19T03:12:46.817Z,99.993896
2023-02-19T03:13:55.459Z,99.993896
2023-02-19T03:15:04.132Z,99.993896
2023-02-19T03:16:12.910Z,99.993896
2023-02-19T03:17:22.574Z,99.993896
2023-02-19T03:18:32.236Z,99.993896
2023-02-19T03:19:41.896Z,99.993896
2023-02-19T03:20:50.549Z,99.993896
2023-02-19T03:22:00.236Z,99.993896
2023-02-19T03:23:09.891Z,99.993896
2023-02-19T03:24:17.564Z,99.993896
2023-02-19T03:25:26.212Z,99.993896
2023-02-19T03:26:35.870Z,99.993896
2023-02-19T03:27:45.540Z,99.993896
2023-02-19T03:28:53.187Z,99.993896
2023-02-19T03:30:01.946Z,99.993896
2023-02-19T03:31:11.980Z,99.993896
2023-02-19T03:32:21.366Z,99.993896
2023-02-19T03:33:30.984Z,99.993896
2023-02-19T03:34:39.632Z,99.993896
2023-02-19T03:35:49.313Z,99.993896
2023-02-19T03:36:59.018Z,99.993896
2023-02-19T03:38:06.679Z,99.993896
2023-02-19T03:39:14.319Z,99.993896
2023-02-19T03:40:23.980Z,99.993896
2023-02-19T03:41:32.629Z,99.993896
2023-02-19T03:42:41.309Z,99.993896
2023-02-19T03:43:49.957Z,99.993896
2023-02-19T03:44:58.596Z,99.993896
2023-02-19T03:46:08.280Z,99.993896
2023-02-19T03:47:15.910Z,99.993896
2023-02-19T03:48:23.548Z,99.993896
2023-02-19T03:49:33.206Z,99.993896
2023-02-19T03:50:42.856Z,99.993896
2023-02-19T03:51:52.531Z,99.993896
2023-02-19T03:53:02.194Z,99.993896
2023-02-19T03:54:10.829Z,99.993896
2023-02-19T03:55:20.484Z,99.993896
2023-02-19T03:56:28.139Z,99.993896
2023-02-19T03:57:35.826Z,99.993896
2023-02-19T03:58:45.467Z,99.993896
2023-02-19T03:59:55.124Z,99.993896
2023-02-19T04:01:04.777Z,99.993896
2023-02-19T04:02:14.470Z,99.993896
2023-02-19T04:03:24.122Z,99.993896
2023-02-19T04:04:33.803Z,99.993896
2023-02-19T04:05:43.428Z,99.993896
2023-02-19T04:06:53.088Z,99.993896
2023-02-19T04:08:01.767Z,99.993896
2023-02-19T04:09:11.437Z,99.993896
2023-02-19T04:10:21.101Z,99.993896
2023-02-19T04:11:29.738Z,99.993896
2023-02-19T04:12:38.411Z,99.993896
2023-02-19T04:13:47.073Z,99.993896
2023-02-19T04:14:56.725Z,99.993896
2023-02-19T04:16:05.413Z,99.993896
2023-02-19T04:17:13.068Z,99.993896
2023-02-19T04:18:21.738Z,99.993896
2023-02-19T04:19:31.381Z,99.993896
2023-02-19T04:20:40.047Z,99.993896
2023-02-19T04:21:47.667Z,99.993896
2023-02-19T04:22:57.352Z,99.993896
2023-02-19T04:24:06.001Z,99.993896
2023-02-19T04:25:15.697Z,99.993896
2023-02-19T04:26:24.346Z,99.993896
2023-02-19T04:27:32.013Z,99.993896
2023-02-19T04:28:41.663Z,99.993896
2023-02-19T04:29:50.300Z,99.993896
2023-02-19T04:30:58.978Z,99.993896
2023-02-19T04:32:06.601Z,99.993896
2023-02-19T04:33:16.270Z,99.993896
2023-02-19T04:34:25.935Z,99.993896
2023-02-19T04:35:33.580Z,99.993896
2023-02-19T04:36:42.233Z,99.993896
2023-02-19T04:37:51.952Z,99.993896
2023-02-19T04:39:01.592Z,99.993896
2023-02-19T04:40:09.241Z,99.993896
2023-02-19T04:41:17.897Z,99.993896
2023-02-19T04:42:26.564Z,99.993896
2023-02-19T04:43:36.212Z,99.993896
2023-02-19T04:44:43.855Z,99.993896
2023-02-19T04:45:52.532Z,99.993896
2023-02-19T04:47:02.174Z,99.993896
2023-02-19T04:48:10.868Z,99.993896
2023-02-19T04:49:19.512Z,99.993896
2023-02-19T04:50:28.191Z,99.993896
2023-02-19T04:51:37.854Z,99.993896
2023-02-19T04:52:47.627Z,99.993896
2023-02-19T04:53:55.271Z,99.993896
2023-02-19T04:55:03.950Z,99.993896
2023-02-19T04:56:13.608Z,99.993896
2023-02-19T04:57:23.283Z,99.993896
2023-02-19T04:58:32.014Z,99.993896
2023-02-19T04:59:40.672Z,99.993896
2023-02-19T05:00:49.374Z,99.993896
2023-02-19T05:01:59.046Z,99.993896
2023-02-19T05:03:07.740Z,99.993896
2023-02-19T05:04:16.461Z,99.993896
2023-02-19T05:05:26.086Z,99.993896
2023-02-19T05:06:35.744Z,99.993896
2023-02-19T05:07:45.466Z,99.993896
2023-02-19T05:08:55.112Z,99.993896
2023-02-19T05:10:03.757Z,99.993896
2023-02-19T05:11:13.648Z,99.993896
2023-02-19T05:12:22.053Z,99.993896
2023-02-19T05:13:30.784Z,99.993896
2023-02-19T05:14:40.376Z,99.993896
2023-02-19T05:15:49.019Z,99.993896
2023-02-19T05:16:58.669Z,99.993896
2023-02-19T05:18:08.350Z,99.993896
2023-02-19T05:19:17.021Z,99.993896
2023-02-19T05:20:26.670Z,99.993896
2023-02-19T05:21:35.313Z,99.993896
2023-02-19T05:22:43.958Z,99.993896
2023-02-19T05:23:53.657Z,99.993896
2023-02-19T05:25:02.290Z,99.993896
2023-02-19T05:26:10.937Z,99.993896
2023-02-19T05:27:19.593Z,99.993896
2023-02-19T05:28:28.374Z,99.981689
2023-02-19T05:29:38.006Z,99.993896
2023-02-19T05:30:45.667Z,99.993896
2023-02-19T05:31:53.359Z,99.981689
2023-02-19T05:33:02.931Z,99.77417
2023-02-19T05:34:12.596Z,99.77417
2023-02-19T05:35:22.246Z,99.87793
2023-02-19T05:36:31.897Z,99.365234
2023-02-19T05:37:41.532Z,99.11499
2023-02-19T05:38:51.205Z,99.053955
2023-02-19T05:39:58.844Z,99.01123
2023-02-19T05:41:06.478Z,99.11499
2023-02-19T05:42:16.152Z,99.212646
2023-02-19T05:43:24.880Z,99.11499
2023-02-19T05:44:34.562Z,99.157715
2023-02-19T05:45:42.215Z,99.053955
2023-02-19T05:46:50.861Z,98.803711
2023-02-19T05:48:00.509Z,98.803711
2023-02-19T05:49:09.188Z,98.602295
2023-02-19T05:50:18.853Z,98.498535
2023-02-19T05:51:28.523Z,98.187256
2023-02-19T05:52:37.174Z,98.187256
2023-02-19T05:53:46.872Z,98.187256
2023-02-19T05:54:56.519Z,97.98584
2023-02-19T05:56:06.172Z,97.98584
2023-02-19T05:57:16.845Z,97.570801
2023-02-19T05:58:24.491Z,97.467041
2023-02-19T05:59:32.150Z,97.570801
2023-02-19T06:00:41.818Z,97.570801
2023-02-19T06:01:51.479Z,97.674561
2023-02-19T06:03:01.206Z,97.674561
2023-02-19T06:04:09.817Z,97.058105
2023-02-19T06:05:19.446Z,97.058105
2023-02-19T06:06:28.121Z,97.058105
2023-02-19T06:07:36.732Z,96.850586
2023-02-19T06:08:46.424Z,96.704102
2023-02-19T06:09:54.093Z,96.398926
2023-02-19T06:11:02.857Z,96.087646
2023-02-19T06:12:12.503Z,96.191406
2023-02-19T06:13:21.149Z,96.502686
2023-02-19T06:14:30.840Z,96.295166
2023-02-19T06:15:40.487Z,96.398926
2023-02-19T06:16:49.132Z,96.295166
2023-02-19T06:17:58.801Z,96.502686
2023-02-19T06:19:06.456Z,96.502686
2023-02-19T06:20:14.109Z,96.600342
2023-02-19T06:21:23.767Z,96.087646
2023-02-19T06:22:33.427Z,95.782471
2023-02-19T06:23:42.090Z,95.678711
2023-02-19T06:24:50.776Z,95.678711
2023-02-19T06:26:00.441Z,95.471191
2023-02-19T06:27:10.094Z,95.471191
2023-02-19T06:28:17.740Z,95.471191
2023-02-19T06:29:25.402Z,95.471191
2023-02-19T06:30:35.134Z,95.269775
2023-02-19T06:31:44.885Z,94.958496
2023-02-19T06:32:53.385Z,94.445801
2023-02-19T06:34:02.085Z,94.506836
2023-02-19T06:35:11.747Z,94.299316
2023-02-19T06:36:21.396Z,94.506836
2023-02-19T06:37:29.048Z,94.195557
2023-02-19T06:38:37.754Z,94.299316
2023-02-19T06:39:47.433Z,94.610596
2023-02-19T06:40:56.116Z,94.299316
2023-02-19T06:42:05.781Z,94.403076
2023-02-19T06:43:14.438Z,94.0979
2023-02-19T06:44:23.103Z,94.506836
2023-02-19T06:45:32.773Z,94.299316
2023-02-19T06:46:41.486Z,94.299316
2023-02-19T06:47:51.092Z,94.403076
2023-02-19T06:49:00.789Z,94.195557
2023-02-19T06:50:10.437Z,94.195557
2023-02-19T06:51:20.099Z,93.890381
2023-02-19T06:52:27.753Z,93.890381
2023-02-19T06:53:36.395Z,93.994141
2023-02-19T06:54:46.090Z,93.994141
2023-02-19T06:55:54.819Z,94.0979
2023-02-19T06:57:02.456Z,93.786621
2023-02-19T06:58:12.155Z,93.890381
2023-02-19T06:59:21.872Z,93.640137
2023-02-19T07:00:31.555Z,93.640137
2023-02-19T07:01:40.179Z,93.743896
2023-02-19T07:02:49.826Z,93.847656
2023-02-19T07:03:59.595Z,93.847656
2023-02-19T07:05:08.137Z,93.536377
2023-02-19T07:06:17.802Z,92.822266
2023-02-19T07:07:27.452Z,92.926025
2023-02-19T07:08:37.126Z,93.231201
2023-02-19T07:09:45.799Z,92.926025
2023-02-19T07:10:54.453Z,92.614746
2023-02-19T07:12:03.106Z,92.572021
2023-02-19T07:13:11.821Z,92.163086
2023-02-19T07:14:20.572Z,92.059326
2023-02-19T07:15:27.194Z,92.059326
2023-02-19T07:16:36.927Z,92.059326
2023-02-19T07:17:46.497Z,92.163086
2023-02-19T07:18:55.160Z,92.163086
2023-02-19T07:20:04.833Z,92.266846
2023-02-19T07:21:14.479Z,92.364502
2023-02-19T07:22:24.129Z,92.059326
2023-02-19T07:23:31.793Z,92.364502
2023-02-19T07:24:40.491Z,92.468262
2023-02-19T07:25:51.170Z,92.364502
2023-02-19T07:27:00.821Z,92.779541
2023-02-19T07:28:09.479Z,92.877197
2023-02-19T07:29:18.134Z,92.779541
2023-02-19T07:30:26.834Z,93.188477
2023-02-19T07:31:36.629Z,93.188477
2023-02-19T07:32:45.160Z,93.292236
2023-02-19T07:33:53.834Z,93.597412
2023-02-19T07:35:03.534Z,93.389893
2023-02-19T07:36:12.179Z,93.188477
2023-02-19T07:37:21.823Z,93.292236
2023-02-19T07:38:30.486Z,93.292236
2023-02-19T07:39:39.148Z,92.877197
2023-02-19T07:40:48.805Z,93.292236
2023-02-19T07:41:58.477Z,93.389893
2023-02-19T07:43:06.131Z,93.188477
2023-02-19T07:44:15.790Z,93.389893
2023-02-19T07:45:25.602Z,93.389893
2023-02-19T07:46:35.209Z,93.701172
2023-02-19T07:47:44.863Z,94.006348
2023-02-19T07:48:53.570Z,94.519043
2023-02-19T07:50:02.260Z,94.622803
2023-02-19T07:51:11.238Z,94.927979
2023-02-19T07:52:19.544Z,94.927979
2023-02-19T07:53:29.223Z,94.830322
2023-02-19T07:54:37.893Z,95.031738
2023-02-19T07:55:47.587Z,94.415283
2023-02-19T07:56:56.259Z,94.213867
2023-02-19T07:58:06.189Z,93.701172
2023-02-19T07:59:14.545Z,93.597412
2023-02-19T08:00:23.232Z,93.493652
2023-02-19T08:01:32.929Z,93.292236
2023-02-19T08:02:39.533Z,93.493652
2023-02-19T08:03:50.501Z,93.292236
2023-02-19T08:04:58.998Z,92.834473
2023-02-19T08:06:07.699Z,92.779541
2023-02-19T08:07:17.357Z,92.877197
2023-02-19T08:08:27.048Z,92.877197
2023-02-19T08:09:35.700Z,93.041992
2023-02-19T08:10:45.461Z,92.877197
2023-02-19T08:11:53.128Z,92.572021
2023-02-19T08:13:01.806Z,92.877197
2023-02-19T08:14:11.465Z,92.980957
2023-02-19T08:15:22.370Z,92.980957
2023-02-19T08:16:42.394Z,93.292236
2023-02-19T08:17:40.494Z,93.292236
2023-02-19T08:18:49.166Z,93.493652
2023-02-19T08:19:58.817Z,93.188477
2023-02-19T08:21:05.496Z,93.389893
2023-02-19T08:22:13.161Z,93.292236
2023-02-19T08:23:22.829Z,93.450928
2023-02-19T08:24:32.477Z,93.554688
2023-02-19T08:25:42.165Z,93.145752
2023-02-19T08:26:51.830Z,93.145752
2023-02-19T08:28:00.472Z,92.834473
2023-02-19T08:29:10.132Z,92.321777
2023-02-19T08:30:17.841Z,92.633057
2023-02-19T08:31:26.635Z,92.425537
2023-02-19T08:32:36.202Z,92.120361
2023-02-19T08:33:44.925Z,91.711426
2023-02-19T08:34:53.596Z,91.503906
2023-02-19T08:36:02.300Z,91.503906
2023-02-19T08:37:11.967Z,91.912842
2023-02-19T08:38:21.639Z,91.912842
2023-02-19T08:39:30.287Z,91.815186
2023-02-19T08:40:38.999Z,91.870117
2023-02-19T08:41:48.687Z,91.711426
2023-02-19T08:42:58.341Z,91.772461
2023-02-19T08:44:08.019Z,90.539551
2023-02-19T08:45:16.706Z,91.052246
2023-02-19T08:46:25.558Z,91.259766
2023-02-19T08:47:35.163Z,90.234375
2023-02-19T08:48:43.824Z,90.026855
2023-02-19T08:49:51.478Z,90.130615
2023-02-19T08:51:01.172Z,90.130615
2023-02-19T08:52:10.838Z,90.435791
2023-02-19T08:53:19.509Z,89.825439
2023-02-19T08:54:28.161Z,90.338135
2023-02-19T08:55:36.811Z,89.923096
2023-02-19T08:56:45.477Z,89.825439
2023-02-19T08:57:54.132Z,90.026855
2023-02-19T08:59:02.774Z,90.74707
2023-02-19T09:00:12.432Z,91.052246
2023-02-19T09:01:21.172Z,90.844727
2023-02-19T09:02:29.801Z,90.844727
2023-02-19T09:03:38.501Z,90.478516
2023-02-19T09:04:45.149Z,90.844727
2023-02-19T09:05:53.849Z,91.094971
2023-02-19T09:07:02.513Z,90.582275
2023-02-19T09:08:10.184Z,90.582275
2023-02-19T09:09:19.876Z,90.789795
2023-02-19T09:10:28.562Z,90.887451
2023-02-19T09:11:37.256Z,91.19873
2023-02-19T09:12:44.985Z,91.503906
2023-02-19T09:13:53.643Z,91.30249
2023-02-19T09:15:03.323Z,90.686035
2023-02-19T09:16:13.037Z,90.887451
2023-02-19T09:17:21.706Z,90.374756
2023-02-19T09:18:31.388Z,90.478516
2023-02-19T09:19:40.063Z,90.17334
2023-02-19T09:20:48.727Z,89.868164
2023-02-19T09:21:58.408Z,89.453125
2023-02-19T09:23:07.080Z,89.96582
2023-02-19T09:24:16.786Z,89.96582
2023-02-19T09:25:24.450Z,90.06958
2023-02-19T09:26:34.200Z,90.478516
2023-02-19T09:27:43.872Z,90.374756
2023-02-19T09:28:52.552Z,89.764404
2023-02-19T09:30:01.259Z,89.764404
2023-02-19T09:31:11.338Z,89.453125
2023-02-19T09:32:20.587Z,88.94043
2023-02-19T09:33:30.266Z,88.122559
2023-02-19T09:34:37.921Z,87.713623
2023-02-19T09:35:46.572Z,87.304688
2023-02-19T09:36:56.280Z,86.279297
2023-02-19T09:38:04.935Z,84.332275
2023-02-19T09:39:13.623Z,84.228516
2023-02-19T09:40:22.285Z,84.0271
2023-02-19T09:41:30.957Z,83.92334
2023-02-19T09:42:40.646Z,84.49707
2023-02-19T09:43:51.953Z,84.49707
2023-02-19T09:45:00.631Z,83.538818
2023-02-19T09:46:10.313Z,83.740234
2023-02-19T09:47:18.997Z,83.026123
2023-02-19T09:48:27.671Z,83.026123
2023-02-19T09:49:36.321Z,83.270264
2023-02-19T09:50:45.978Z,83.166504
2023-02-19T09:51:55.689Z,83.001709
2023-02-19T09:53:04.365Z,83.203125
2023-02-19T09:54:13.006Z,82.93457
2023-02-19T09:55:22.660Z,83.03833
2023-02-19T09:56:31.323Z,83.758545
2023-02-19T09:57:41.030Z,83.654785
2023-02-19T09:58:49.784Z,83.551025
2023-02-19T09:59:59.446Z,83.795166
2023-02-19T10:01:08.147Z,83.38623
2023-02-19T10:02:17.937Z,83.282471
2023-02-19T10:03:27.616Z,82.666016
2023-02-19T10:04:37.284Z,83.14209
2023-02-19T10:05:45.960Z,82.629395
2023-02-19T10:06:55.648Z,82.220459
2023-02-19T10:08:04.316Z,81.707764
2023-02-19T10:09:13.012Z,81.665039
2023-02-19T10:10:21.668Z,81.665039
2023-02-19T10:11:31.384Z,81.054688
2023-02-19T10:12:41.056Z,80.541992
2023-02-19T10:13:48.724Z,80.847168
2023-02-19T10:14:56.371Z,80.743408
2023-02-19T10:16:06.066Z,80.950928
2023-02-19T10:17:15.705Z,80.133057
2023-02-19T10:18:25.368Z,80.603027
2023-02-19T10:19:35.039Z,79.785156
2023-02-19T10:20:44.801Z,79.13208
2023-02-19T10:21:54.469Z,78.930664
2023-02-19T10:23:03.141Z,78.588867
2023-02-19T10:24:10.775Z,78.344727
2023-02-19T10:25:20.450Z,77.832031
2023-02-19T10:26:29.079Z,76.367188
2023-02-19T10:27:37.780Z,76.062012
2023-02-19T10:28:47.443Z,74.932861
2023-02-19T10:29:56.107Z,74.798584
2023-02-19T10:31:05.776Z,74.249268
2023-02-19T10:32:13.481Z,74.249268
2023-02-19T10:33:22.096Z,73.840332
2023-02-19T10:34:31.764Z,74.316406
2023-02-19T10:35:41.492Z,72.686768
2023-02-19T10:36:51.153Z,71.734619
2023-02-19T10:38:00.827Z,71.325684
2023-02-19T10:39:10.548Z,71.020508
2023-02-19T10:40:20.231Z,71.118164
2023-02-19T10:41:27.892Z,70.782471
2023-02-19T10:42:36.565Z,70.239258
2023-02-19T10:43:46.264Z,70.172119
2023-02-19T10:44:55.950Z,70.373535
2023-02-19T10:46:05.655Z,70.135498
2023-02-19T10:47:14.279Z,70.037842
2023-02-19T10:48:22.984Z,69.256592
2023-02-19T10:49:32.611Z,68.572998
2023-02-19T10:50:42.307Z,68.237305
2023-02-19T10:51:49.950Z,68.64624
2023-02-19T10:52:59.619Z,67.962646
2023-02-19T10:54:07.296Z,68.884277
2023-02-19T10:55:15.971Z,69.189453
2023-02-19T10:56:24.648Z,68.75
2023-02-19T10:57:34.326Z,68.103027
2023-02-19T10:58:43.015Z,67.767334
2023-02-19T10:59:51.694Z,66.748047
2023-02-19T11:00:59.323Z,67.1875
2023-02-19T11:02:09.980Z,67.08374
2023-02-19T11:03:19.724Z,66.30249
2023-02-19T11:04:28.442Z,65.997314
2023-02-19T11:05:37.995Z,66.40625
2023-02-19T11:06:46.781Z,65.893555
2023-02-19T11:07:56.589Z,66.131592
2023-02-19T11:09:04.225Z,66.436768
2023-02-19T11:10:11.932Z,66.845703
2023-02-19T11:11:21.601Z,66.943359
2023-02-19T11:12:31.241Z,67.047119
2023-02-19T11:13:40.960Z,67.248535
2023-02-19T11:14:50.720Z,67.456055
2023-02-19T11:15:59.499Z,67.687988
2023-02-19T11:17:09.072Z,67.926025
2023-02-19T11:18:17.807Z,68.841553
2023-02-19T11:19:25.461Z,68.743896
2023-02-19T11:20:35.134Z,68.774414
2023-02-19T11:21:44.788Z,68.878174
2023-02-19T11:22:53.492Z,69.213867
2023-02-19T11:24:02.180Z,69.317627
2023-02-19T11:25:10.853Z,69.927979
2023-02-19T11:26:20.534Z,70.336914
2023-02-19T11:27:28.249Z,69.927979
2023-02-19T11:28:36.980Z,70.031738
2023-02-19T11:29:46.636Z,69.9646
2023-02-19T11:30:55.296Z,70.166016
2023-02-19T11:32:04.014Z,70.269775
2023-02-19T11:33:13.652Z,70.269775
2023-02-19T11:34:22.312Z,70.776367
2023-02-19T11:35:31.977Z,70.471191
2023-02-19T11:36:40.680Z,70.678711
2023-02-19T11:37:49.539Z,70.471191
2023-02-19T11:38:59.293Z,70.678711
2023-02-19T11:40:07.929Z,70.574951
2023-02-19T11:41:16.586Z,70.269775
2023-02-19T11:42:25.908Z,70.367432
2023-02-19T11:43:33.995Z,70.678711
2023-02-19T11:44:43.654Z,70.574951
2023-02-19T11:45:51.330Z,70.880127
2023-02-19T11:46:58.976Z,70.983887
2023-02-19T11:48:08.626Z,70.678711
2023-02-19T11:49:17.353Z,70.776367
2023-02-19T11:50:27.060Z,71.496582
2023-02-19T11:51:36.781Z,70.983887
2023-02-19T11:52:46.450Z,71.087646
2023-02-19T11:53:56.151Z,71.496582
2023-02-19T11:55:05.825Z,72.717285
2023-02-19T11:56:15.560Z,73.126221
2023-02-19T11:57:31.313Z,74.249268
2023-02-19T11:58:41.004Z,76.940918
2023-02-19T11:59:49.671Z,79.229736
2023-02-19T12:00:58.316Z,80.187988
2023-02-19T12:02:07.030Z,81.243896
2023-02-19T12:03:16.707Z,81.14624
2023-02-19T12:04:24.442Z,80.975342
2023-02-19T12:05:34.135Z,79.748535
2023-02-19T12:06:43.835Z,78.625488
2023-02-19T12:07:52.524Z,77.563477
2023-02-19T12:09:01.275Z,76.33667
2023-02-19T12:10:11.011Z,75.415039
2023-02-19T12:11:20.726Z,74.761963
2023-02-19T12:12:30.456Z,75.073242
2023-02-19T12:13:38.203Z,74.932861
2023-02-19T12:14:46.986Z,74.32251
2023-02-19T12:15:56.743Z,73.162842
2023-02-19T12:17:05.457Z,71.734619
2023-02-19T12:18:14.166Z,71.221924
2023-02-19T12:19:22.867Z,71.154785
2023-02-19T12:20:32.564Z,71.630859
2023-02-19T12:21:42.241Z,71.630859
2023-02-19T12:22:52.002Z,71.392822
2023-02-19T12:23:59.743Z,70.404053
2023-02-19T12:25:09.537Z,69.250488
2023-02-19T12:26:18.242Z,69.555664
2023-02-19T12:27:26.958Z,69.488525
2023-02-19T12:28:35.741Z,69.384766
2023-02-19T12:29:44.405Z,68.97583
2023-02-19T12:30:54.211Z,69.07959
2023-02-19T12:32:03.882Z,69.287109
2023-02-19T12:33:12.494Z,69.18335
2023-02-19T12:34:21.230Z,68.97583
2023-02-19T12:35:30.907Z,69.384766
2023-02-19T12:36:39.577Z,69.287109
2023-02-19T12:37:48.288Z,69.793701
2023-02-19T12:38:57.001Z,69.18335
2023-02-19T12:40:06.673Z,69.519043
2023-02-19T12:41:14.319Z,69.793701
2023-02-19T12:42:22.034Z,69.592285
2023-02-19T12:43:31.729Z,69.689941
2023-02-19T12:44:40.456Z,69.18335
2023-02-19T12:45:49.169Z,68.97583
2023-02-19T12:46:57.816Z,69.18335
2023-02-19T12:48:06.484Z,69.488525
2023-02-19T12:49:16.160Z,70.001221
2023-02-19T12:50:24.847Z,70.544434
2023-02-19T12:51:33.548Z,71.289062
2023-02-19T12:52:43.247Z,72.003174
2023-02-19T12:53:51.930Z,72.650146
2023-02-19T12:55:01.634Z,73.706055
2023-02-19T12:56:11.570Z,74.761963
2023-02-19T12:57:21.040Z,75.170898
2023-02-19T12:58:30.760Z,75.20752
2023-02-19T12:59:38.463Z,74.938965
2023-02-19T13:00:49.457Z,75.3479
2023-02-19T13:01:56.810Z,75.036621
2023-02-19T13:03:06.634Z,74.21875
2023-02-19T13:04:15.328Z,74.21875
2023-02-19T13:05:25.088Z,73.779297
2023-02-19T13:06:33.751Z,73.675537
2023-02-19T13:07:43.448Z,72.857666
2023-02-19T13:09:05.687Z,73.059082
2023-02-19T13:10:02.868Z,72.546387